PWSweather.com
Personal Weather Stations
Station Observations
UXOLA
Alcoy, AlcoyES

AlcoyAlcoyES

Lat: 38.70299, Lon: -0.48184

Elevation: 1935

Station Type: PCE FWS-20,

http://www.fiestasalcoy.xyz

High Low Average
Temperature 54.0°F12.2°C 33.6°F0.9°C 44.3°F6.8°C
Dew Point 28.5°F-1.9°C 21.0°F-6.1°C 25.0°F-3.9°C
Winds 13.6 mph 21.9 kmh Calm Calm 4.0 mph SW6.4 kmh SW
Wind Gusts 21.3 mph34.3 kmh 1.6 mph2.6 kmh 9.0 mph14.5 kmh
Humidity 61% 30% 47%
Pressure 29.79 in1008.8 mb 29.65 in1004.1 mb -
Precipitation 0.00 in0.0 mm - -
Hour Temp Dew Point Humidity Winds Wind Gusts Pressure Precip Precip Rate Daily Precip Total
12:00 AM 41.2°F5.1°C 28.0°F-2.2°C 59% 1.6 mph W2.6 kmh W 6.9 mph11.1 kmh 29.76 in1007.8 mb 0.00 in0.0 mm 0.00 in0.0 mm 0.00 in0.0 mm
12:15 AM 40.6°F4.8°C 27.9°F-2.3°C 60% 0.7 mph W1.1 kmh W 2.2 mph3.5 kmh 29.76 in1007.8 mb 0.00 in0.0 mm 0.00 in0.0 mm 0.00 in0.0 mm
12:30 AM 39.4°F4.1°C 27.1°F-2.7°C 61% 0.7 mph W1.1 kmh W 2.2 mph3.5 kmh 29.77 in1008.1 mb 0.00 in0.0 mm 0.00 in0.0 mm 0.00 in0.0 mm
12:45 AM 39.0°F3.9°C 26.7°F-2.9°C 61% 0.7 mph WSW1.1 kmh WSW 4.5 mph7.2 kmh 29.76 in1007.8 mb 0.00 in0.0 mm 0.00 in0.0 mm 0.00 in0.0 mm
01:00 AM 39.4°F4.1°C 27.1°F-2.7°C 61% 0.7 mph SW1.1 kmh SW 2.2 mph3.5 kmh 29.75 in1007.5 mb 0.00 in0.0 mm 0.00 in0.0 mm 0.00 in0.0 mm
01:15 AM 38.8°F3.8°C 26.6°F-3.0°C 61% 0.7 mph W1.1 kmh W 2.2 mph3.5 kmh 29.76 in1007.8 mb 0.00 in0.0 mm 0.00 in0.0 mm 0.00 in0.0 mm
01:45 AM 38.3°F3.5°C 26.0°F-3.3°C 61% 3.1 mph SW5.0 kmh SW 5.4 mph8.7 kmh 29.77 in1008.1 mb 0.00 in0.0 mm 0.00 in0.0 mm 0.00 in0.0 mm
02:00 AM 38.3°F3.5°C 26.0°F-3.3°C 61% 3.8 mph WSW6.1 kmh WSW 4.5 mph7.2 kmh 29.77 in1008.1 mb 0.00 in0.0 mm 0.00 in0.0 mm 0.00 in0.0 mm
02:15 AM 38.1°F3.4°C 25.9°F-3.4°C 61% 0.7 mph SW1.1 kmh SW 5.4 mph8.7 kmh 29.77 in1008.1 mb 0.00 in0.0 mm 0.00 in0.0 mm 0.00 in0.0 mm
02:30 AM 38.1°F3.4°C 25.5°F-3.6°C 60% 3.8 mph WSW6.1 kmh WSW 5.4 mph8.7 kmh 29.76 in1007.8 mb 0.00 in0.0 mm 0.00 in0.0 mm 0.00 in0.0 mm
02:45 AM 38.3°F3.5°C 25.7°F-3.5°C 60% 4.5 mph SW7.2 kmh SW 6.0 mph9.7 kmh 29.77 in1008.1 mb 0.00 in0.0 mm 0.00 in0.0 mm 0.00 in0.0 mm
03:00 AM 38.3°F3.5°C 25.2°F-3.8°C 59% 2.2 mph SW3.5 kmh SW 5.4 mph8.7 kmh 29.77 in1008.1 mb 0.00 in0.0 mm 0.00 in0.0 mm 0.00 in0.0 mm
03:15 AM 38.1°F3.4°C 24.3°F-4.3°C 57% 3.1 mph SW5.0 kmh SW 5.4 mph8.7 kmh 29.77 in1008.1 mb 0.00 in0.0 mm 0.00 in0.0 mm 0.00 in0.0 mm
03:30 AM 38.5°F3.6°C 24.2°F-4.3°C 56% 2.2 mph WSW3.5 kmh WSW 6.9 mph11.1 kmh 29.78 in1008.5 mb 0.00 in0.0 mm 0.00 in0.0 mm 0.00 in0.0 mm
03:45 AM 38.7°F3.7°C 23.5°F-4.7°C 54% 2.2 mph WSW3.5 kmh WSW 6.0 mph9.7 kmh 29.77 in1008.1 mb 0.00 in0.0 mm 0.00 in0.0 mm 0.00 in0.0 mm
04:00 AM 38.1°F3.4°C 23.4°F-4.8°C 55% 3.8 mph WSW6.1 kmh WSW 4.5 mph7.2 kmh 29.76 in1007.8 mb 0.00 in0.0 mm 0.00 in0.0 mm 0.00 in0.0 mm
04:15 AM 37.8°F3.2°C 23.1°F-4.9°C 55% 1.6 mph W2.6 kmh W 4.5 mph7.2 kmh 29.76 in1007.8 mb 0.00 in0.0 mm 0.00 in0.0 mm 0.00 in0.0 mm
04:30 AM 38.1°F3.4°C 23.0°F-5.0°C 54% 1.6 mph WSW2.6 kmh WSW 3.1 mph5.0 kmh 29.76 in1007.8 mb 0.00 in0.0 mm 0.00 in0.0 mm 0.00 in0.0 mm
04:45 AM 38.3°F3.5°C 22.7°F-5.2°C 53% 0.7 mph W1.1 kmh W 3.1 mph5.0 kmh 29.75 in1007.5 mb 0.00 in0.0 mm 0.00 in0.0 mm 0.00 in0.0 mm
05:00 AM 38.3°F3.5°C 22.7°F-5.2°C 53% 1.6 mph WSW2.6 kmh WSW 3.8 mph6.1 kmh 29.75 in1007.5 mb 0.00 in0.0 mm 0.00 in0.0 mm 0.00 in0.0 mm
05:15 AM 38.5°F3.6°C 22.4°F-5.3°C 52% 3.8 mph WSW6.1 kmh WSW 7.6 mph12.2 kmh 29.76 in1007.8 mb 0.00 in0.0 mm 0.00 in0.0 mm 0.00 in0.0 mm
05:30 AM 38.8°F3.8°C 22.3°F-5.4°C 51% 2.2 mph WSW3.5 kmh WSW 6.0 mph9.7 kmh 29.77 in1008.1 mb 0.00 in0.0 mm 0.00 in0.0 mm 0.00 in0.0 mm
05:45 AM 38.7°F3.7°C 22.1°F-5.5°C 51% 0.7 mph WSW1.1 kmh WSW 4.5 mph7.2 kmh 29.77 in1008.1 mb 0.00 in0.0 mm 0.00 in0.0 mm 0.00 in0.0 mm
06:00 AM 38.1°F3.4°C 21.6°F-5.8°C 51% 1.6 mph W2.6 kmh W 3.1 mph5.0 kmh 29.76 in1007.8 mb 0.00 in0.0 mm 0.00 in0.0 mm 0.00 in0.0 mm
06:15 AM 37.2°F2.9°C 21.2°F-6.0°C 52% 1.6 mph WNW2.6 kmh WNW 3.1 mph5.0 kmh 29.77 in1008.1 mb 0.00 in0.0 mm 0.00 in0.0 mm 0.00 in0.0 mm
06:30 AM 36.9°F2.7°C 21.4°F-5.9°C 53% 0.7 mph WSW1.1 kmh WSW 3.8 mph6.1 kmh 29.76 in1007.8 mb 0.00 in0.0 mm 0.00 in0.0 mm 0.00 in0.0 mm
06:45 AM 36.0°F2.2°C 21.0°F-6.1°C 54% 0.7 mph WSW1.1 kmh WSW 3.8 mph6.1 kmh 29.75 in1007.5 mb 0.00 in0.0 mm 0.00 in0.0 mm 0.00 in0.0 mm
07:00 AM 35.6°F2.0°C 21.1°F-6.1°C 55% 1.6 mph SSW2.6 kmh SSW 2.2 mph3.5 kmh 29.75 in1007.5 mb 0.00 in0.0 mm 0.00 in0.0 mm 0.00 in0.0 mm
07:15 AM 34.9°F1.6°C 21.6°F-5.8°C 58% Calm Calm 1.6 mph2.6 kmh 29.75 in1007.5 mb 0.00 in0.0 mm 0.00 in0.0 mm 0.00 in0.0 mm
07:30 AM 34.5°F1.4°C 22.1°F-5.5°C 60% 0.7 mph N1.1 kmh N 2.2 mph3.5 kmh 29.76 in1007.8 mb 0.00 in0.0 mm 0.00 in0.0 mm 0.00 in0.0 mm
07:45 AM 34.2°F1.2°C 21.8°F-5.7°C 60% Calm Calm 1.6 mph2.6 kmh 29.76 in1007.8 mb 0.00 in0.0 mm 0.00 in0.0 mm 0.00 in0.0 mm
08:00 AM 33.8°F1.0°C 21.4°F-5.9°C 60% Calm Calm 1.6 mph2.6 kmh 29.76 in1007.8 mb 0.00 in0.0 mm 0.00 in0.0 mm 0.00 in0.0 mm
08:15 AM 33.6°F0.9°C 21.2°F-6.0°C 60% 0.7 mph WNW1.1 kmh WNW 2.2 mph3.5 kmh 29.78 in1008.5 mb 0.00 in0.0 mm 0.00 in0.0 mm 0.00 in0.0 mm
08:30 AM 33.8°F1.0°C 21.4°F-5.9°C 60% 0.7 mph WSW1.1 kmh WSW 3.1 mph5.0 kmh 29.78 in1008.5 mb 0.00 in0.0 mm 0.00 in0.0 mm 0.00 in0.0 mm
08:45 AM 35.2°F1.8°C 22.8°F-5.1°C 60% 3.8 mph WSW6.1 kmh WSW 6.0 mph9.7 kmh 29.78 in1008.5 mb 0.00 in0.0 mm 0.00 in0.0 mm 0.00 in0.0 mm
09:00 AM 36.9°F2.7°C 22.7°F-5.2°C 56% 2.2 mph WSW3.5 kmh WSW 5.4 mph8.7 kmh 29.79 in1008.8 mb 0.00 in0.0 mm 0.00 in0.0 mm 0.00 in0.0 mm
09:15 AM 37.9°F3.3°C 23.2°F-4.9°C 55% 0.7 mph WSW1.1 kmh WSW 5.4 mph8.7 kmh 29.79 in1008.8 mb 0.00 in0.0 mm 0.00 in0.0 mm 0.00 in0.0 mm
09:30 AM 39.2°F4.0°C 24.0°F-4.4°C 54% 2.2 mph SW3.5 kmh SW 6.9 mph11.1 kmh 29.79 in1008.8 mb 0.00 in0.0 mm 0.00 in0.0 mm 0.00 in0.0 mm
09:45 AM 39.6°F4.2°C 24.3°F-4.3°C 54% 3.1 mph WSW5.0 kmh WSW 4.5 mph7.2 kmh 29.78 in1008.5 mb 0.00 in0.0 mm 0.00 in0.0 mm 0.00 in0.0 mm
10:00 AM 40.5°F4.7°C 25.1°F-3.8°C 54% 1.6 mph WSW2.6 kmh WSW 3.1 mph5.0 kmh 29.78 in1008.5 mb 0.00 in0.0 mm 0.00 in0.0 mm 0.00 in0.0 mm
10:15 AM 42.1°F5.6°C 26.2°F-3.2°C 53% 3.1 mph SSW5.0 kmh SSW 6.0 mph9.7 kmh 29.78 in1008.5 mb 0.00 in0.0 mm 0.00 in0.0 mm 0.00 in0.0 mm
10:30 AM 44.4°F6.9°C 23.3°F-4.8°C 43% 1.6 mph WSW2.6 kmh WSW 13.0 mph20.9 kmh 29.77 in1008.1 mb 0.00 in0.0 mm 0.00 in0.0 mm 0.00 in0.0 mm
10:45 AM 45.7°F7.6°C 23.3°F-4.8°C 41% 4.5 mph SW7.2 kmh SW 8.3 mph13.4 kmh 29.78 in1008.5 mb 0.00 in0.0 mm 0.00 in0.0 mm 0.00 in0.0 mm
11:00 AM 46.6°F8.1°C 23.6°F-4.7°C 40% 4.5 mph SW7.2 kmh SW 13.0 mph20.9 kmh 29.77 in1008.1 mb 0.00 in0.0 mm 0.00 in0.0 mm 0.00 in0.0 mm
11:15 AM 47.3°F8.5°C 22.4°F-5.3°C 37% 6.0 mph SW9.7 kmh SW 11.4 mph18.3 kmh 29.77 in1008.1 mb 0.00 in0.0 mm 0.00 in0.0 mm 0.00 in0.0 mm
11:30 AM 47.8°F8.8°C 24.1°F-4.4°C 39% 13.6 mph W21.9 kmh W 16.8 mph27.0 kmh 29.77 in1008.1 mb 0.00 in0.0 mm 0.00 in0.0 mm 0.00 in0.0 mm
11:45 AM 48.0°F8.9°C 24.9°F-3.9°C 40% 9.8 mph WSW15.8 kmh WSW 19.0 mph30.6 kmh 29.76 in1007.8 mb 0.00 in0.0 mm 0.00 in0.0 mm 0.00 in0.0 mm
12:00 PM 48.6°F9.2°C 25.9°F-3.4°C 41% 12.1 mph SW19.5 kmh SW 19.7 mph31.7 kmh 29.75 in1007.5 mb 0.00 in0.0 mm 0.00 in0.0 mm 0.00 in0.0 mm
12:15 PM 49.1°F9.5°C 26.4°F-3.1°C 41% 8.3 mph SW13.4 kmh SW 14.5 mph23.3 kmh 29.74 in1007.1 mb 0.00 in0.0 mm 0.00 in0.0 mm 0.00 in0.0 mm
12:30 PM 49.5°F9.7°C 26.8°F-2.9°C 41% 3.8 mph SW6.1 kmh SW 15.9 mph25.6 kmh 29.74 in1007.1 mb 0.00 in0.0 mm 0.00 in0.0 mm 0.00 in0.0 mm
12:45 PM 49.8°F9.9°C 26.5°F-3.1°C 40% 6.9 mph WSW11.1 kmh WSW 13.6 mph21.9 kmh 29.73 in1006.8 mb 0.00 in0.0 mm 0.00 in0.0 mm 0.00 in0.0 mm
01:00 PM 49.6°F9.8°C 25.1°F-3.8°C 38% 8.3 mph SW13.4 kmh SW 21.3 mph34.3 kmh 29.72 in1006.4 mb 0.00 in0.0 mm 0.00 in0.0 mm 0.00 in0.0 mm
01:15 PM 49.6°F9.8°C 25.7°F-3.5°C 39% 6.0 mph SW9.7 kmh SW 13.6 mph21.9 kmh 29.72 in1006.4 mb 0.00 in0.0 mm 0.00 in0.0 mm 0.00 in0.0 mm
01:30 PM 49.8°F9.9°C 26.5°F-3.1°C 40% 3.8 mph SW6.1 kmh SW 15.9 mph25.6 kmh 29.71 in1006.1 mb 0.00 in0.0 mm 0.00 in0.0 mm 0.00 in0.0 mm
01:45 PM 49.6°F9.8°C 26.3°F-3.2°C 40% 13.6 mph WSW21.9 kmh WSW 20.6 mph33.2 kmh 29.72 in1006.4 mb 0.00 in0.0 mm 0.00 in0.0 mm 0.00 in0.0 mm
02:00 PM 49.8°F9.9°C 27.1°F-2.7°C 41% 5.4 mph WSW8.7 kmh WSW 19.0 mph30.6 kmh 29.70 in1005.8 mb 0.00 in0.0 mm 0.00 in0.0 mm 0.00 in0.0 mm
02:15 PM 50.0°F10.0°C 27.2°F-2.7°C 41% 8.3 mph W13.4 kmh W 12.1 mph19.5 kmh 29.70 in1005.8 mb 0.00 in0.0 mm 0.00 in0.0 mm 0.00 in0.0 mm
02:30 PM 50.0°F10.0°C 27.2°F-2.7°C 41% 7.6 mph SSW12.2 kmh SSW 12.1 mph19.5 kmh 29.70 in1005.8 mb 0.00 in0.0 mm 0.00 in0.0 mm 0.00 in0.0 mm
02:45 PM 50.4°F10.2°C 27.6°F-2.4°C 41% 5.4 mph WSW8.7 kmh WSW 13.0 mph20.9 kmh 29.69 in1005.4 mb 0.00 in0.0 mm 0.00 in0.0 mm 0.00 in0.0 mm
03:00 PM 50.9°F10.5°C 28.1°F-2.2°C 41% 10.7 mph WSW17.2 kmh WSW 16.8 mph27.0 kmh 29.69 in1005.4 mb 0.00 in0.0 mm 0.00 in0.0 mm 0.00 in0.0 mm
03:15 PM 50.4°F10.2°C 27.6°F-2.4°C 41% 3.8 mph WSW6.1 kmh WSW 12.1 mph19.5 kmh 29.68 in1005.1 mb 0.00 in0.0 mm 0.00 in0.0 mm 0.00 in0.0 mm
03:30 PM 50.4°F10.2°C 28.2°F-2.1°C 42% 6.0 mph SW9.7 kmh SW 9.2 mph14.8 kmh 29.68 in1005.1 mb 0.00 in0.0 mm 0.00 in0.0 mm 0.00 in0.0 mm
03:45 PM 50.5°F10.3°C 28.3°F-2.1°C 42% 5.4 mph WSW8.7 kmh WSW 14.5 mph23.3 kmh 29.68 in1005.1 mb 0.00 in0.0 mm 0.00 in0.0 mm 0.00 in0.0 mm
04:00 PM 51.4°F10.8°C 28.5°F-1.9°C 41% 5.4 mph SW8.7 kmh SW 10.7 mph17.2 kmh 29.67 in1004.7 mb 0.00 in0.0 mm 0.00 in0.0 mm 0.00 in0.0 mm
04:15 PM 52.7°F11.5°C 26.5°F-3.1°C 36% 6.0 mph SW9.7 kmh SW 16.8 mph27.0 kmh 29.66 in1004.4 mb 0.00 in0.0 mm 0.00 in0.0 mm 0.00 in0.0 mm
04:30 PM 53.6°F12.0°C 22.9°F-5.1°C 30% 6.0 mph WSW9.7 kmh WSW 18.3 mph29.5 kmh 29.65 in1004.1 mb 0.00 in0.0 mm 0.00 in0.0 mm 0.00 in0.0 mm
04:45 PM 54.0°F12.2°C 23.2°F-4.9°C 30% 4.5 mph WSW7.2 kmh WSW 18.3 mph29.5 kmh 29.66 in1004.4 mb 0.00 in0.0 mm 0.00 in0.0 mm 0.00 in0.0 mm
05:00 PM 53.1°F11.7°C 24.0°F-4.4°C 32% 6.0 mph WSW9.7 kmh WSW 14.5 mph23.3 kmh 29.65 in1004.1 mb 0.00 in0.0 mm 0.00 in0.0 mm 0.00 in0.0 mm
05:15 PM 52.7°F11.5°C 26.5°F-3.1°C 36% 5.4 mph WSW8.7 kmh WSW 15.2 mph24.5 kmh 29.66 in1004.4 mb 0.00 in0.0 mm 0.00 in0.0 mm 0.00 in0.0 mm
05:30 PM 52.3°F11.3°C 26.9°F-2.8°C 37% 3.8 mph SW6.1 kmh SW 15.9 mph25.6 kmh 29.66 in1004.4 mb 0.00 in0.0 mm 0.00 in0.0 mm 0.00 in0.0 mm
05:45 PM 52.2°F11.2°C 27.3°F-2.6°C 38% 6.9 mph WSW11.1 kmh WSW 13.0 mph20.9 kmh 29.67 in1004.7 mb 0.00 in0.0 mm 0.00 in0.0 mm 0.00 in0.0 mm
06:00 PM 51.3°F10.7°C 27.8°F-2.3°C 40% 4.5 mph WSW7.2 kmh WSW 16.8 mph27.0 kmh 29.67 in1004.7 mb 0.00 in0.0 mm 0.00 in0.0 mm 0.00 in0.0 mm
06:15 PM 50.5°F10.3°C 27.1°F-2.7°C 40% 5.4 mph SW8.7 kmh SW 9.8 mph15.8 kmh 29.67 in1004.7 mb 0.00 in0.0 mm 0.00 in0.0 mm 0.00 in0.0 mm
06:30 PM 50.2°F10.1°C 28.0°F-2.2°C 42% 6.0 mph SSW9.7 kmh SSW 13.0 mph20.9 kmh 29.67 in1004.7 mb 0.00 in0.0 mm 0.00 in0.0 mm 0.00 in0.0 mm
06:45 PM 49.8°F9.9°C 28.2°F-2.1°C 43% 5.4 mph SW8.7 kmh SW 11.4 mph18.3 kmh 29.68 in1005.1 mb 0.00 in0.0 mm 0.00 in0.0 mm 0.00 in0.0 mm
07:00 PM 49.3°F9.6°C 28.3°F-2.1°C 44% 0.7 mph SW1.1 kmh SW 6.9 mph11.1 kmh 29.67 in1004.7 mb 0.00 in0.0 mm 0.00 in0.0 mm 0.00 in0.0 mm
07:15 PM 49.1°F9.5°C 27.0°F-2.8°C 42% 3.1 mph WSW5.0 kmh WSW 9.2 mph14.8 kmh 29.67 in1004.7 mb 0.00 in0.0 mm 0.00 in0.0 mm 0.00 in0.0 mm
07:30 PM 49.1°F9.5°C 26.4°F-3.1°C 41% Calm Calm 6.0 mph9.7 kmh 29.68 in1005.1 mb 0.00 in0.0 mm 0.00 in0.0 mm 0.00 in0.0 mm
07:45 PM 48.4°F9.1°C 26.4°F-3.1°C 42% 0.7 mph NW1.1 kmh NW 2.2 mph3.5 kmh 29.68 in1005.1 mb 0.00 in0.0 mm 0.00 in0.0 mm 0.00 in0.0 mm
08:00 PM 48.0°F8.9°C 26.0°F-3.3°C 42% 0.7 mph WSW1.1 kmh WSW 6.0 mph9.7 kmh 29.69 in1005.4 mb 0.00 in0.0 mm 0.00 in0.0 mm 0.00 in0.0 mm
08:15 PM 47.1°F8.4°C 25.2°F-3.8°C 42% 5.4 mph WSW8.7 kmh WSW 6.9 mph11.1 kmh 29.70 in1005.8 mb 0.00 in0.0 mm 0.00 in0.0 mm 0.00 in0.0 mm
08:30 PM 47.7°F8.7°C 24.5°F-4.2°C 40% 3.8 mph WSW6.1 kmh WSW 6.9 mph11.1 kmh 29.69 in1005.4 mb 0.00 in0.0 mm 0.00 in0.0 mm 0.00 in0.0 mm
08:45 PM 47.7°F8.7°C 24.5°F-4.2°C 40% 1.6 mph SW2.6 kmh SW 8.3 mph13.4 kmh 29.69 in1005.4 mb 0.00 in0.0 mm 0.00 in0.0 mm 0.00 in0.0 mm
09:00 PM 47.7°F8.7°C 23.9°F-4.5°C 39% 3.1 mph SW5.0 kmh SW 6.9 mph11.1 kmh 29.69 in1005.4 mb 0.00 in0.0 mm 0.00 in0.0 mm 0.00 in0.0 mm
09:15 PM 47.7°F8.7°C 23.9°F-4.5°C 39% 3.1 mph SSW5.0 kmh SSW 6.0 mph9.7 kmh 29.70 in1005.8 mb 0.00 in0.0 mm 0.00 in0.0 mm 0.00 in0.0 mm
09:30 PM 47.8°F8.8°C 23.5°F-4.7°C 38% 3.8 mph E6.1 kmh E 7.6 mph12.2 kmh 29.70 in1005.8 mb 0.00 in0.0 mm 0.00 in0.0 mm 0.00 in0.0 mm
09:45 PM 47.8°F8.8°C 24.1°F-4.4°C 39% 2.2 mph WSW3.5 kmh WSW 5.4 mph8.7 kmh 29.70 in1005.8 mb 0.00 in0.0 mm 0.00 in0.0 mm 0.00 in0.0 mm
10:00 PM 47.5°F8.6°C 24.4°F-4.2°C 40% 0.7 mph E1.1 kmh E 4.5 mph7.2 kmh 29.72 in1006.4 mb 0.00 in0.0 mm 0.00 in0.0 mm 0.00 in0.0 mm
10:15 PM 47.5°F8.6°C 24.4°F-4.2°C 40% 0.7 mph SW1.1 kmh SW 3.8 mph6.1 kmh 29.71 in1006.1 mb 0.00 in0.0 mm 0.00 in0.0 mm 0.00 in0.0 mm
10:30 PM 47.3°F8.5°C 24.8°F-4.0°C 41% 1.6 mph SW2.6 kmh SW 6.9 mph11.1 kmh 29.72 in1006.4 mb 0.00 in0.0 mm 0.00 in0.0 mm 0.00 in0.0 mm
10:45 PM 47.1°F8.4°C 25.2°F-3.8°C 42% 1.6 mph SW2.6 kmh SW 6.9 mph11.1 kmh 29.72 in1006.4 mb 0.00 in0.0 mm 0.00 in0.0 mm 0.00 in0.0 mm
11:00 PM 46.9°F8.3°C 25.6°F-3.6°C 43% 3.8 mph WSW6.1 kmh WSW 9.8 mph15.8 kmh 29.72 in1006.4 mb 0.00 in0.0 mm 0.00 in0.0 mm 0.00 in0.0 mm
11:15 PM 46.9°F8.3°C 26.2°F-3.2°C 44% 3.1 mph WSW5.0 kmh WSW 10.7 mph17.2 kmh 29.72 in1006.4 mb 0.00 in0.0 mm 0.00 in0.0 mm 0.00 in0.0 mm
11:30 PM 46.9°F8.3°C 26.7°F-2.9°C 45% 5.4 mph SW8.7 kmh SW 8.3 mph13.4 kmh 29.71 in1006.1 mb 0.00 in0.0 mm 0.00 in0.0 mm 0.00 in0.0 mm
11:45 PM 47.1°F8.4°C 26.3°F-3.2°C 44% 9.2 mph WSW14.8 kmh WSW 15.2 mph24.5 kmh 29.71 in1006.1 mb 0.00 in0.0 mm 0.00 in0.0 mm 0.00 in0.0 mm